createdAt,value
2018-11-02T00:03:32.417Z,24.1
2018-11-02T00:13:31.635Z,24.1
2018-11-02T00:23:30.854Z,24.1
2018-11-02T00:33:30.077Z,24.1
2018-11-02T00:43:29.290Z,24
2018-11-02T00:53:28.514Z,24
2018-11-02T01:03:27.732Z,24.1
2018-11-02T01:13:27.000Z,24.1
2018-11-02T01:23:26.168Z,24.1
2018-11-02T01:33:25.381Z,24.2
2018-11-02T01:43:24.606Z,24.2
2018-11-02T01:53:23.823Z,24.2
2018-11-02T02:03:23.087Z,24.2
2018-11-02T02:13:22.400Z,24.2
2018-11-02T02:23:21.483Z,24.1
2018-11-02T02:33:20.699Z,24.1
2018-11-02T02:43:19.914Z,24.1
2018-11-02T02:53:19.133Z,24.1
2018-11-02T03:03:18.345Z,24
2018-11-02T03:13:17.563Z,24.1
2018-11-02T03:23:16.781Z,24.1
2018-11-02T03:33:16.002Z,24
2018-11-02T03:43:15.217Z,24.1
2018-11-02T03:53:14.551Z,24
2018-11-02T04:03:13.655Z,24
2018-11-02T04:13:12.874Z,23.9
2018-11-02T04:23:12.087Z,23.9
2018-11-02T04:33:11.307Z,23.9
2018-11-02T04:43:10.528Z,23.9
2018-11-02T04:53:09.748Z,23.9
2018-11-02T05:03:08.965Z,23.9
2018-11-02T05:13:08.178Z,23.9
2018-11-02T05:23:07.454Z,23.8
2018-11-02T05:33:06.621Z,23.8
2018-11-02T05:43:05.839Z,23.8
2018-11-02T05:53:05.048Z,23.8
2018-11-02T06:03:04.272Z,23.7
2018-11-02T06:13:03.490Z,23.7
2018-11-02T06:23:02.705Z,23.6
2018-11-02T06:33:01.931Z,23.6
2018-11-02T06:43:01.138Z,23.6
2018-11-02T06:53:00.361Z,23.6
2018-11-02T07:02:59.577Z,23.6
2018-11-02T07:12:58.791Z,23.6
2018-11-02T07:22:58.022Z,23.6
2018-11-02T07:32:57.232Z,23.7
2018-11-02T07:42:56.501Z,23.8
2018-11-02T07:52:55.683Z,23.9
2018-11-02T08:02:54.884Z,24
2018-11-02T08:12:54.105Z,24.2
2018-11-02T08:22:53.326Z,24.4
2018-11-02T08:32:52.541Z,24.5
2018-11-02T08:42:51.757Z,24.6
2018-11-02T08:52:50.974Z,24.7
2018-11-02T09:02:50.201Z,24.8
2018-11-02T09:12:49.412Z,24.8
2018-11-02T09:22:48.641Z,24.9
2018-11-02T09:32:47.854Z,24.9
2018-11-02T09:42:47.126Z,24.9
2018-11-02T09:52:46.291Z,24.9
2018-11-02T10:02:45.503Z,25
2018-11-02T10:12:44.757Z,25.1
2018-11-02T10:22:43.946Z,25.1
2018-11-02T10:32:43.164Z,25.1
2018-11-02T10:42:42.383Z,25
2018-11-02T10:52:41.593Z,25
2018-11-02T11:02:40.810Z,24.9
2018-11-02T11:12:40.250Z,24.9
2018-11-02T11:22:39.249Z,24.9
2018-11-02T11:32:38.468Z,24.9
2018-11-02T11:42:37.689Z,24.9
2018-11-02T11:52:36.909Z,24.9
2018-11-02T12:02:36.129Z,24.8
2018-11-02T12:12:35.348Z,24.8
2018-11-02T12:22:34.563Z,24.8
2018-11-02T12:32:33.782Z,24.8
2018-11-02T12:42:33.020Z,24.7
2018-11-02T12:52:32.220Z,24.6
2018-11-02T13:02:31.436Z,24.5
2018-11-02T13:12:30.687Z,24.5
2018-11-02T13:22:29.879Z,24.5
2018-11-02T13:32:29.104Z,24.5
2018-11-02T13:42:28.314Z,24.4
2018-11-02T13:52:27.533Z,24.4
2018-11-02T14:02:26.752Z,24.4
2018-11-02T14:12:25.970Z,24.4
2018-11-02T14:22:25.190Z,24.4
2018-11-02T14:32:24.416Z,24.3
2018-11-02T14:42:23.622Z,24.3
2018-11-02T14:52:22.844Z,24.3
2018-11-02T15:02:22.067Z,24.2
2018-11-02T15:12:21.283Z,24.1
2018-11-02T15:22:20.503Z,24.1
2018-11-02T15:32:19.714Z,24.1
2018-11-02T15:42:18.938Z,24
2018-11-02T15:52:18.156Z,24.1
2018-11-02T16:02:17.378Z,24.1
2018-11-02T16:12:16.591Z,24.1
2018-11-02T16:22:15.815Z,24.1
2018-11-02T16:32:15.038Z,24.1
2018-11-02T16:42:14.254Z,24.1
2018-11-02T16:52:13.481Z,24.1
2018-11-02T17:02:12.704Z,24.1
2018-11-02T17:12:11.918Z,24.1
2018-11-02T17:22:11.138Z,24
2018-11-02T17:32:10.368Z,24
2018-11-02T17:42:09.582Z,24
2018-11-02T17:52:08.805Z,24
2018-11-02T18:02:08.018Z,24
2018-11-02T18:12:07.253Z,24
2018-11-02T18:22:06.470Z,24
2018-11-02T18:32:05.684Z,24.1
2018-11-02T18:42:04.911Z,24.1
2018-11-02T18:52:04.178Z,24.1
2018-11-02T19:02:03.340Z,24.2
2018-11-02T19:12:02.556Z,24.1
2018-11-02T19:22:01.778Z,24.1
2018-11-02T19:32:01.002Z,24.1
2018-11-02T19:42:00.266Z,24.1
2018-11-02T19:51:59.436Z,24.1
2018-11-02T20:01:58.711Z,24.2
2018-11-02T20:11:57.889Z,24.2
2018-11-02T20:21:57.100Z,24.3
2018-11-02T20:31:56.416Z,24.3
2018-11-02T20:41:55.542Z,24.2
2018-11-02T20:51:54.765Z,24.2
2018-11-02T21:01:53.980Z,24.2
2018-11-02T21:11:53.200Z,24.2
2018-11-02T21:21:52.449Z,24.1
2018-11-02T21:31:51.644Z,24.1
2018-11-02T21:41:50.856Z,24.2
2018-11-02T21:51:50.081Z,24.2
2018-11-02T22:01:49.292Z,24.2
2018-11-02T22:11:48.523Z,24.2
2018-11-02T22:21:47.728Z,24.2
2018-11-02T22:31:46.946Z,24.2
2018-11-02T22:41:46.171Z,24.2
2018-11-02T22:51:45.389Z,24.2
2018-11-02T23:01:44.602Z,24.2
2018-11-02T23:11:43.821Z,24.2
2018-11-02T23:21:43.038Z,24.2
2018-11-02T23:31:42.263Z,24.2
2018-11-02T23:41:41.476Z,24.1
2018-11-02T23:51:40.694Z,24.1
